Latest Weather Observations for Cape Willoughby

IDS60801

Issued at 6:51 am CDT Friday 21 January 2022 (issued every 10 minutes, with the page automatically refreshed every 10 minutes)

About weather observations | Map of weather stations | Latest weather observations for SA | Other Formats
Station Details ID: 022803 Name: CAPE WILLOUGHBY Lat: -35.84 Lon: 138.13 Height: 55.0 m
Data from the previous 72 hours. | See also: Recent months at Cape Willoughby
Date/Time
CDT
Temp
°C
App
Temp
°C
Dew
Point
°C
Rel
Hum
%
Delta-T
°C
Wind Press
QNH
hPa
Press
MSL
hPa
Rain since
9am
mm
Dir  Spd
km/h
Gust
km/h
Spd
kts
Gust
kts
21/06:30am 21.4 16.6 15.5 69 3.5 ENE 35 41 19 22 1018.6 1018.5 0.0
21/06:00am 21.6 16.7 15.2 67 3.8 ENE 35 41 19 22 1018.3 1018.2 0.0
21/05:30am 21.8 17.1 14.9 65 4.1 E 33 39 18 21 1018.3 1018.2 0.0
21/05:00am 21.9 16.8 14.8 64 4.2 E 35 41 19 22 1018.1 1018.0 0.0
21/04:30am 21.9 17.3 15.0 65 4.1 ENE 33 39 18 21 1018.1 1018.0 0.0
21/04:00am 22.3 17.7 14.7 62 4.5 ENE 32 37 17 20 1018.3 1018.2 0.0
21/03:30am 22.1 17.7 15.2 65 4.1 ENE 32 35 17 19 1018.4 1018.3 0.0
21/03:00am 22.6 18.5 15.0 62 4.5 ENE 30 35 16 19 1018.6 1018.5 0.0
21/02:30am 22.5 20.4 15.1 63 4.4 ENE 20 26 11 14 1018.8 1018.7 0.0
21/02:00am 21.7 20.6 15.3 67 3.8 E 15 19 8 10 1018.9 1018.8 0.0
21/01:30am 21.1 21.4 16.1 73 3.0 E 9 13 5 7 1019.1 1019.0 0.0
21/01:00am 20.5 21.1 15.9 75 2.8 ENE 7 7 4 4 1019.4 1019.3 0.0
21/12:30am 20.3 21.5 15.9 76 2.6 ESE 4 6 2 3 1019.6 1019.5 0.0
21/12:00am 20.2 20.8 15.8 76 2.6 ESE 7 11 4 6 1019.5 1019.4 0.0
 
Date/Time
CDT
Temp
°C
App
Temp
°C
Dew
Point
°C
Rel
Hum
%
Delta-T
°C
Wind Press
QNH
hPa
Press
MSL
hPa
Rain since
9am
mm
Dir  Spd
km/h
Gust
km/h
Spd
kts
Gust
kts
20/11:30pm 19.9 21.0 15.7 77 2.5 NNW 4 7 2 4 1019.7 1019.6 0.0
20/11:00pm 20.0 20.8 15.8 77 2.5 NNW 6 13 3 7 1019.7 1019.6 0.0
20/10:30pm 20.3 18.7 15.9 76 2.6 E 19 37 10 20 1019.4 1019.3 0.0
20/10:10pm 20.5 18.7 15.9 75 2.8 ESE 20 41 11 22 1019.3 1019.2 0.0
20/10:00pm 20.7 15.6 15.9 74 2.9 SE 37 44 20 24 1018.7 1018.6 0.0
20/09:30pm 20.9 15.0 15.7 72 3.1 SE 41 54 22 29 1018.5 1018.4 0.0
20/09:00pm 20.8 16.1 15.8 73 3.0 SE 35 43 19 23 1018.3 1018.2 0.0
20/08:30pm 21.0 15.2 16.0 73 3.0 SE 41 50 22 27 1017.8 1017.7 0.0
20/08:00pm 21.0 16.0 16.2 74 2.9 SE 37 46 20 25 1017.8 1017.7 0.0
20/07:30pm 21.2 16.2 16.2 73 3.0 SE 37 48 20 26 1017.6 1017.5 0.0
20/07:00pm 21.4 16.8 16.1 72 3.2 SE 35 43 19 23 1017.8 1017.7 0.0
20/06:30pm 22.5 19.7 16.3 68 3.8 SE 26 35 14 19 1017.8 1017.7 0.0
20/06:00pm 22.6 19.9 16.6 69 3.7 SE 26 30 14 16 1017.9 1017.8 0.0
20/05:30pm 22.2 19.2 16.7 71 3.4 SE 28 30 15 16 1018.3 1018.2 0.0
20/05:00pm 22.8 19.6 16.4 67 3.9 SE 28 32 15 17 1018.6 1018.5 0.0
20/04:30pm 22.6 19.7 17.1 71 3.4 SE 28 33 15 18 1018.7 1018.6 0.0
20/04:00pm 22.8 21.1 17.3 71 3.4 SSE 22 35 12 19 1019.1 1019.0 0.0
20/03:30pm 23.2 22.6 16.7 67 4.0 SE 15 20 8 11 1019.5 1019.4 0.0
20/03:00pm 24.9 22.5 16.3 59 5.3 ESE 24 28 13 15 1020.0 1019.8 0.0
20/02:30pm 23.8 21.8 17.3 67 4.0 ESE 24 30 13 16 1020.1 1019.9 0.0
20/02:00pm 24.4 22.3 17.1 63 4.5 ESE 24 30 13 16 1020.4 1020.2 0.0
20/01:30pm 25.1 23.0 17.1 61 5.0 E 24 28 13 15 1020.7 1020.5 0.0
20/01:00pm 24.4 22.3 17.1 63 4.5 E 24 26 13 14 1021.1 1020.9 0.0
20/12:30pm 23.5 21.8 17.3 68 3.8 E 22 28 12 15 1021.5 1021.3 0.0
20/12:00pm 23.0 20.9 17.2 70 3.6 ESE 24 28 13 15 1021.6 1021.4 0.0
20/11:30am 22.9 21.7 17.4 71 3.4 ESE 20 24 11 13 1021.7 1021.5 0.0
20/11:00am 22.8 22.8 17.3 71 3.4 E 13 20 7 11 1021.8 1021.6 0.0
20/10:30am 22.9 23.8 16.7 68 3.8 NE 7 17 4 9 1021.8 1021.6 0.0
20/10:00am 23.3 22.4 16.8 67 4.0 NE 17 20 9 11 1021.6 1021.4 0.0
20/09:30am 22.6 22.9 17.1 71 3.4 NE 11 19 6 10 1021.6 1021.4 0.0
20/09:00am 21.6 21.9 16.1 71 3.3 NE 9 15 5 8 1021.8 1021.6 0.0
20/08:30am 22.2 21.8 16.2 69 3.6 NE 13 15 7 8 1021.5 1021.3 0.0
20/08:00am 21.7 22.0 16.9 74 2.9 ENE 11 17 6 9 1021.1 1020.9 0.0
20/07:30am 20.7 19.7 16.7 78 2.4 ENE 17 19 9 10 1020.9 1020.7 0.0
20/07:00am 20.3 19.0 16.7 80 2.2 E 19 20 10 11 1020.7 1020.5 0.0
20/06:30am 19.9 18.3 16.5 81 2.0 E 20 22 11 12 1020.4 1020.2 0.0
20/06:00am 20.1 19.1 16.7 81 2.1 ENE 17 20 9 11 1020.2 1020.0 0.0
20/05:30am 20.0 19.4 16.6 81 2.1 ENE 15 17 8 9 1019.7 1019.6 0.0
20/05:00am 20.2 18.8 16.6 80 2.2 ENE 19 20 10 11 1019.4 1019.3 0.0
20/04:30am 20.3 18.4 16.7 80 2.2 ENE 22 26 12 14 1019.1 1019.0 0.0
20/04:00am 20.3 17.9 16.5 79 2.3 E 24 28 13 15 1018.7 1018.6 0.0
20/03:30am 20.4 17.6 16.4 78 2.4 E 26 32 14 17 1018.3 1018.2 0.0
20/03:00am 20.4 19.3 16.4 78 2.4 ESE 17 24 9 13 1018.5 1018.4 0.0
20/02:30am 20.1 18.5 15.9 77 2.5 ESE 19 24 10 13 1018.5 1018.4 0.0
20/02:00am 20.3 19.8 15.9 76 2.6 SSE 13 22 7 12 1018.7 1018.6 0.0
20/01:30am 19.9 19.1 16.2 79 2.2 S 15 20 8 11 1018.8 1018.7 0.0
20/01:00am 19.4 17.7 16.2 82 1.9 SSW 20 24 11 13 1018.9 1018.8 0.0
20/12:30am 18.5 16.4 16.1 86 1.4 SW 22 24 12 13 1018.9 1018.8 0.0
20/12:00am 18.3 16.5 15.9 86 1.4 SW 20 20 11 11 1018.9 1018.8 0.0
 
Date/Time
CDT
Temp
°C
App
Temp
°C
Dew
Point
°C
Rel
Hum
%
Delta-T
°C
Wind Press
QNH
hPa
Press
MSL
hPa
Rain since
9am
mm
Dir  Spd
km/h
Gust
km/h
Spd
kts
Gust
kts
19/11:30pm 18.3 17.9 16.1 87 1.3 SSW 13 19 7 10 1019.0 1018.9 0.0
19/11:00pm 18.3 17.8 15.9 86 1.4 S 13 15 7 8 1019.2 1019.1 0.0
19/10:30pm 18.2 17.0 16.0 87 1.3 S 17 19 9 10 1019.2 1019.1 0.0
19/10:00pm 18.0 17.8 15.8 87 1.3 S 11 15 6 8 1019.4 1019.3 0.0
19/09:30pm 18.0 17.5 15.8 87 1.3 S 13 17 7 9 1019.3 1019.2 0.0
19/09:00pm 18.1 17.2 15.9 87 1.3 S 15 20 8 11 1018.8 1018.7 0.0
19/08:30pm 18.1 16.5 15.9 87 1.3 S 19 24 10 13 1018.4 1018.3 0.0
19/08:00pm 18.2 16.6 16.0 87 1.3 S 19 24 10 13 1018.4 1018.3 0.0
19/07:30pm 18.4 16.8 16.0 86 1.4 SSE 19 24 10 13 1018.1 1018.0 0.0
19/07:00pm 18.6 17.1 16.2 86 1.4 SSE 19 24 10 13 1018.1 1018.0 0.0
19/06:30pm 18.7 15.8 16.1 85 1.5 SSE 26 32 14 17 1018.1 1018.0 0.0
19/06:00pm 18.8 16.2 16.0 84 1.7 SSE 24 32 13 17 1018.2 1018.1 0.0
19/05:30pm 18.8 15.1 16.0 84 1.7 SSE 30 35 16 19 1018.4 1018.3 0.0
19/05:00pm 18.9 15.2 16.0 83 1.7 SE 30 37 16 20 1018.5 1018.4 0.0
19/04:30pm 19.0 15.6 15.9 82 1.8 SSE 28 35 15 19 1018.7 1018.6 0.0
19/04:00pm 18.9 15.0 15.6 81 2.0 SE 30 39 16 21 1018.9 1018.8 0.0
19/03:30pm 19.0 15.1 15.5 80 2.1 SE 30 37 16 20 1018.9 1018.8 0.0
19/03:00pm 19.2 15.5 15.1 77 2.4 SE 28 35 15 19 1019.3 1019.2 0.0
19/02:30pm 18.8 14.6 14.7 77 2.4 SE 30 39 16 21 1019.6 1019.5 0.0
19/02:00pm 19.6 15.1 14.8 74 2.8 SE 32 41 17 22 1020.0 1019.8 0.0
19/01:30pm 18.3 12.5 14.0 76 2.5 SE 37 46 20 25 1020.1 1019.9 0.0
19/01:00pm 18.4 11.3 13.5 73 2.8 SE 43 52 23 28 1020.4 1020.2 0.0
19/12:30pm 17.7 10.9 13.0 74 2.6 SE 41 54 22 29 1020.5 1020.3 0.0
19/12:00pm 18.0 10.6 12.5 70 3.1 SE 43 54 23 29 1020.5 1020.3 0.0
19/11:30am 18.0 10.6 12.5 70 3.1 SE 43 54 23 29 1020.7 1020.5 0.0
19/11:00am 17.9 11.1 11.9 68 3.3 SE 39 50 21 27 1020.9 1020.7 0.0
19/10:30am 17.9 10.6 11.5 66 3.5 SE 41 54 22 29 1021.0 1020.8 0.0
19/10:00am 17.4 9.9 11.0 66 3.5 SE 41 50 22 27 1021.1 1020.9 0.0
19/09:30am 16.7 9.1 10.5 67 3.3 SE 41 48 22 26 1021.2 1021.0 0.0
19/09:00am 16.7 8.5 10.5 67 3.3 SE 44 52 24 28 1021.2 1021.0 0.0
19/08:30am 16.5 8.5 10.4 67 3.2 SE 43 52 23 28 1021.1 1020.9 0.0
19/08:00am 16.6 8.9 10.2 66 3.4 SE 41 50 22 27 1020.7 1020.5 0.0
19/07:30am 15.9 8.2 10.0 68 3.1 SE 41 52 22 28 1020.4 1020.2 0.0
19/07:00am 15.8 7.7 10.1 69 3.0 SE 43 52 23 28 1020.2 1020.0 0.0
19/06:30am 15.9 7.7 10.4 70 2.9 SE 44 54 24 29 1019.7 1019.6 0.0
19/06:00am 15.9 7.9 10.4 70 2.9 SE 43 52 23 28 1019.4 1019.3 0.0
19/05:30am 16.0 8.1 10.7 71 2.8 SE 43 54 23 29 1019.3 1019.2 0.0
19/05:00am 16.1 8.2 10.8 71 2.8 SE 43 52 23 28 1019.3 1019.2 0.0
19/04:30am 16.0 7.8 10.5 70 2.9 SE 44 54 24 29 1019.0 1018.9 0.0
19/04:00am 16.1 7.6 10.8 71 2.8 SE 46 56 25 30 1018.9 1018.8 0.0
19/03:30am 16.1 7.7 11.1 72 2.7 SE 46 54 25 29 1019.0 1018.9 0.0
19/03:00am 16.1 7.7 11.1 72 2.7 SE 46 56 25 30 1018.9 1018.8 0.0
19/02:30am 16.1 7.8 11.3 73 2.6 SE 46 57 25 31 1018.9 1018.8 0.0
19/02:00am 16.1 7.0 11.1 72 2.7 SE 50 61 27 33 1018.9 1018.8 0.0
19/01:30am 16.2 7.1 11.2 72 2.7 SE 50 63 27 34 1019.1 1019.0 0.0
19/01:00am 16.5 7.2 11.9 74 2.5 SE 52 65 28 35 1019.0 1018.9 0.0
19/12:30am 16.4 7.1 12.0 75 2.4 SE 52 65 28 35 1018.7 1018.6 0.0
19/12:00am 16.3 7.5 12.1 76 2.3 SE 50 63 27 34 1018.6 1018.5 0.0
 
Date/Time
CDT
Temp
°C
App
Temp
°C
Dew
Point
°C
Rel
Hum
%
Delta-T
°C
Wind Press
QNH
hPa
Press
MSL
hPa
Rain since
9am
mm
Dir  Spd
km/h
Gust
km/h
Spd
kts
Gust
kts
18/11:30pm 16.2 6.9 11.8 75 2.4 SSE 52 63 28 34 1018.5 1018.4 0.0
18/11:00pm 16.3 7.5 12.3 77 2.2 SSE 50 63 27 34 1018.5 1018.4 0.0
18/10:30pm 16.3 6.3 11.9 75 2.4 SSE 56 70 30 38 1018.2 1018.1 0.0
18/10:09pm 16.4 8.2 12.8 79 2.0 SE 48 67 26 36 1018.4 1018.3 0.0
18/10:00pm 16.2 6.2 12.2 77 2.2 SE 56 67 30 36 1018.2 1018.1 0.0
18/09:30pm 16.2 6.6 12.0 76 2.3 SE 54 69 29 37 1018.0 1017.9 0.0
18/09:00pm 16.5 7.0 12.3 76 2.3 SE 54 67 29 36 1018.0 1017.9 0.0
18/08:30pm 16.6 7.0 12.2 75 2.4 SSE 54 69 29 37 1018.1 1018.0 0.0
18/08:00pm 16.5 7.6 11.9 74 2.5 SE 50 65 27 35 1017.8 1017.7 0.0
18/07:30pm 16.6 8.4 11.7 73 2.7 SSE 46 59 25 32 1017.6 1017.5 0.0
18/07:00pm 16.9 8.7 11.8 72 2.8 SSE 46 56 25 30 1017.7 1017.6 0.0
18/06:30pm 16.8 8.6 11.7 72 2.8 SSE 46 59 25 32 1017.3 1017.2 0.0
18/06:00pm 16.9 8.7 11.8 72 2.8 SSE 46 57 25 31 1017.0 1016.9 0.0
18/05:30pm 17.1 9.5 11.8 71 2.9 SSE 43 56 23 30 1016.8 1016.7 0.0
18/05:00pm 17.2 9.3 11.5 69 3.1 SSE 44 56 24 30 1017.0 1016.9 0.0
18/04:30pm 17.6 9.8 11.9 69 3.1 SSE 44 56 24 30 1017.3 1017.2 0.0
18/04:00pm 17.3 9.6 11.6 69 3.1 SSE 43 52 23 28 1017.5 1017.4 0.0
18/03:30pm 17.0 9.7 11.7 71 2.9 SSE 41 50 22 27 1017.7 1017.6 0.0
18/03:00pm 17.4 11.0 12.1 71 2.9 SSE 37 48 20 26 1017.8 1017.7 0.0
18/02:30pm 17.3 10.4 11.6 69 3.1 SSE 39 48 21 26 1017.8 1017.7 0.0
18/02:00pm 17.6 11.0 11.4 67 3.4 SSE 37 46 20 25 1018.1 1018.0 0.0
18/01:30pm 17.5 11.4 11.8 69 3.1 SSE 35 44 19 24 1018.3 1018.2 0.0
18/01:00pm 18.6 12.6 10.9 61 4.2 SE 33 43 18 23 1018.4 1018.3 0.0
18/12:30pm 18.1 11.7 10.7 62 4.0 SE 35 43 19 23 1018.6 1018.5 0.0
18/12:00pm 17.9 12.5 11.0 64 3.7 SE 30 41 16 22 1018.7 1018.6 0.0
18/11:30am 18.5 12.6 11.1 62 4.0 SE 33 41 18 22 1018.8 1018.7 0.0
18/11:00am 18.2 12.3 10.6 61 4.1 SE 32 39 17 21 1018.8 1018.7 0.0
18/10:30am 17.6 12.1 10.5 63 3.8 SE 30 39 16 21 1019.0 1018.9 0.0
18/10:00am 17.6 12.0 10.2 62 3.9 SE 30 39 16 21 1019.1 1019.0 0.0
18/09:30am 18.5 12.5 8.5 52 5.2 SE 30 37 16 20 1018.8 1018.7 0.0
18/09:00am 17.5 11.1 8.6 56 4.6 SE 32 37 17 20 1018.7 1018.6 0.0
18/08:30am 17.1 10.8 8.8 58 4.3 SE 32 39 17 21 1018.1 1018.0 0.0
18/08:00am 17.3 11.2 9.7 61 4.0 SE 32 41 17 22 1017.7 1017.6 0.0
18/07:30am 17.0 10.4 9.9 63 3.7 SE 35 44 19 24 1017.5 1017.4 0.0
18/07:00am 16.5 9.5 9.9 65 3.5 SE 37 46 20 25 1017.1 1017.0 0.0

Other formats

Comma delimited format used in spreadsheet applications
http://www.bom.gov.au/fwo/IDS60801/IDS60801.94822.axf

JavaScript Object Notation format (JSON) in row-major order
http://www.bom.gov.au/fwo/IDS60801/IDS60801.94822.json

Data quality

Most of these data are generated automatically and are frequently updated. Quality checks on data are not normally performed. It is possible for incorrect values to appear. Refer to information at About Latest Weather Observations and please check the disclaimer before using these data.